Terminal Aerodrome Forecast
Issued by NWS

Home | Current Version | Previous Version | Text Only | Print | Product List | Glossary Off
Versions: 1 2 3 4 5 6 7 8 9 10 11 12 13 14 15 16 17 18

000
FTUS42 KMHX 261720
TAFOAJ
TAF
KOAJ 261720Z 2618/2718 07005KT P6SM VCTS SCT025 BKN040CB
     FM270600 00000KT 3SM BR SCT005
     FM271200 03008KT P6SM BKN050
      AMD LTD TO CLD VIS AND WIND=

USA.gov is the U.S. government's official web portal to all federal, state and local government web resources and services.